Terminal Aerodrome Forecast
Issued by NWS Albany, NY

Home | Current Version | Previous Version | Text Only | Print | Product List | Glossary On
Versions: 1 2 3 4 5 6 7 8 9 10 11 12 13 14 15 16 17 18 19
655
FTUS41 KALY 281723
TAFPOU
TAF
KPOU 281723Z 2818/2918 18006KT P6SM BKN050 OVC080
     FM282100 17007KT P6SM BKN050 BKN080
     FM290500 VRB03KT P6SM SCT025 OVC050
     FM291000 VRB03KT 5SM -SHRA OVC025
     FM291400 11005KT 4SM -SHRA OVC015=

USA.gov is the U.S. government's official web portal to all federal, state and local government web resources and services.